sensor_id;sensor_type;location;lat;lon;timestamp;temperature;humidity
29729;DHT22;20055;51.498;11.960;2024-01-16T00:00:26;2.10;99.90
29729;DHT22;20055;51.498;11.960;2024-01-16T00:02:53;2.10;99.90
29729;DHT22;20055;51.498;11.960;2024-01-16T00:05:19;2.00;99.90
29729;DHT22;20055;51.498;11.960;2024-01-16T00:07:45;2.10;99.90
29729;DHT22;20055;51.498;11.960;2024-01-16T00:10:12;2.10;99.90
29729;DHT22;20055;51.498;11.960;2024-01-16T00:12:38;2.10;99.90
29729;DHT22;20055;51.498;11.960;2024-01-16T00:15:06;2.00;99.90
29729;DHT22;20055;51.498;11.960;2024-01-16T00:17:34;2.00;99.90
29729;DHT22;20055;51.498;11.960;2024-01-16T00:20:00;2.00;99.90
29729;DHT22;20055;51.498;11.960;2024-01-16T00:22:29;2.00;99.90
29729;DHT22;20055;51.498;11.960;2024-01-16T00:24:56;2.00;99.90
29729;DHT22;20055;51.498;11.960;2024-01-16T00:27:22;2.00;99.90
29729;DHT22;20055;51.498;11.960;2024-01-16T00:29:48;2.00;99.90
29729;DHT22;20055;51.498;11.960;2024-01-16T00:32:14;2.00;99.90
29729;DHT22;20055;51.498;11.960;2024-01-16T00:34:42;2.10;99.90
29729;DHT22;20055;51.498;11.960;2024-01-16T00:37:09;2.00;99.90
29729;DHT22;20055;51.498;11.960;2024-01-16T00:39:35;2.00;99.90
29729;DHT22;20055;51.498;11.960;2024-01-16T00:42:02;2.00;99.90
29729;DHT22;20055;51.498;11.960;2024-01-16T00:44:29;2.00;99.90
29729;DHT22;20055;51.498;11.960;2024-01-16T00:46:55;2.10;99.90
29729;DHT22;20055;51.498;11.960;2024-01-16T00:49:21;2.10;99.90
29729;DHT22;20055;51.498;11.960;2024-01-16T00:51:47;2.20;99.90
29729;DHT22;20055;51.498;11.960;2024-01-16T00:54:13;2.20;99.90
29729;DHT22;20055;51.498;11.960;2024-01-16T00:56:41;2.10;99.90
29729;DHT22;20055;51.498;11.960;2024-01-16T00:59:08;2.10;99.90
29729;DHT22;20055;51.498;11.960;2024-01-16T01:01:37;2.20;99.90
29729;DHT22;20055;51.498;11.960;2024-01-16T01:04:03;2.10;99.90
29729;DHT22;20055;51.498;11.960;2024-01-16T01:06:30;2.10;99.90
29729;DHT22;20055;51.498;11.960;2024-01-16T01:08:56;2.20;99.90
29729;DHT22;20055;51.498;11.960;2024-01-16T01:11:22;2.20;99.90
29729;DHT22;20055;51.498;11.960;2024-01-16T01:13:49;2.10;99.90
29729;DHT22;20055;51.498;11.960;2024-01-16T01:16:15;2.10;99.90
29729;DHT22;20055;51.498;11.960;2024-01-16T01:18:41;2.10;99.90
29729;DHT22;20055;51.498;11.960;2024-01-16T01:21:07;2.10;99.90
29729;DHT22;20055;51.498;11.960;2024-01-16T01:23:33;2.00;99.90
29729;DHT22;20055;51.498;11.960;2024-01-16T01:26:00;1.80;99.90
29729;DHT22;20055;51.498;11.960;2024-01-16T01:28:27;1.80;99.90
29729;DHT22;20055;51.498;11.960;2024-01-16T01:30:53;1.60;99.90
29729;DHT22;20055;51.498;11.960;2024-01-16T01:33:19;1.50;99.90
29729;DHT22;20055;51.498;11.960;2024-01-16T01:35:45;1.50;99.90
29729;DHT22;20055;51.498;11.960;2024-01-16T01:38:12;1.50;99.90
29729;DHT22;20055;51.498;11.960;2024-01-16T01:40:38;1.60;99.90
29729;DHT22;20055;51.498;11.960;2024-01-16T01:46:10;1.70;99.90
29729;DHT22;20055;51.498;11.960;2024-01-16T01:48:38;1.70;99.90
29729;DHT22;20055;51.498;11.960;2024-01-16T01:51:05;1.80;99.90
29729;DHT22;20055;51.498;11.960;2024-01-16T01:53:32;1.90;99.90
29729;DHT22;20055;51.498;11.960;2024-01-16T01:56:00;2.00;99.90
29729;DHT22;20055;51.498;11.960;2024-01-16T01:58:28;2.10;99.90
29729;DHT22;20055;51.498;11.960;2024-01-16T02:00:55;2.10;99.90
29729;DHT22;20055;51.498;11.960;2024-01-16T02:03:23;2.00;99.90
29729;DHT22;20055;51.498;11.960;2024-01-16T02:05:50;2.10;99.90
29729;DHT22;20055;51.498;11.960;2024-01-16T02:08:16;2.10;99.90
29729;DHT22;20055;51.498;11.960;2024-01-16T02:10:45;2.20;99.90
29729;DHT22;20055;51.498;11.960;2024-01-16T02:13:13;2.20;99.90
29729;DHT22;20055;51.498;11.960;2024-01-16T02:15:40;2.20;99.90
29729;DHT22;20055;51.498;11.960;2024-01-16T02:18:07;2.20;99.90
29729;DHT22;20055;51.498;11.960;2024-01-16T02:20:33;2.20;99.90
29729;DHT22;20055;51.498;11.960;2024-01-16T02:23:03;2.20;99.90
29729;DHT22;20055;51.498;11.960;2024-01-16T02:25:30;2.10;99.90
29729;DHT22;20055;51.498;11.960;2024-01-16T02:28:00;2.10;99.90
29729;DHT22;20055;51.498;11.960;2024-01-16T02:30:27;2.00;99.90
29729;DHT22;20055;51.498;11.960;2024-01-16T02:32:53;2.10;99.90
29729;DHT22;20055;51.498;11.960;2024-01-16T02:35:19;2.00;99.90
29729;DHT22;20055;51.498;11.960;2024-01-16T02:37:45;2.00;99.90
29729;DHT22;20055;51.498;11.960;2024-01-16T02:40:12;2.00;99.90
29729;DHT22;20055;51.498;11.960;2024-01-16T02:42:38;2.00;99.90
29729;DHT22;20055;51.498;11.960;2024-01-16T02:45:05;2.00;99.90
29729;DHT22;20055;51.498;11.960;2024-01-16T02:47:31;2.00;99.90
29729;DHT22;20055;51.498;11.960;2024-01-16T02:49:58;2.00;99.90
29729;DHT22;20055;51.498;11.960;2024-01-16T02:52:25;1.90;99.90
29729;DHT22;20055;51.498;11.960;2024-01-16T02:54:51;1.80;99.90
29729;DHT22;20055;51.498;11.960;2024-01-16T02:57:17;1.60;99.90
29729;DHT22;20055;51.498;11.960;2024-01-16T02:59:44;1.50;99.90
29729;DHT22;20055;51.498;11.960;2024-01-16T03:02:10;1.50;99.90
29729;DHT22;20055;51.498;11.960;2024-01-16T03:04:37;1.50;99.90
29729;DHT22;20055;51.498;11.960;2024-01-16T03:07:04;1.50;99.90
29729;DHT22;20055;51.498;11.960;2024-01-16T03:09:31;1.40;99.90
29729;DHT22;20055;51.498;11.960;2024-01-16T03:11:59;1.40;99.90
29729;DHT22;20055;51.498;11.960;2024-01-16T03:14:25;1.30;99.90
29729;DHT22;20055;51.498;11.960;2024-01-16T03:16:51;1.30;99.90
29729;DHT22;20055;51.498;11.960;2024-01-16T03:19:18;1.20;99.90
29729;DHT22;20055;51.498;11.960;2024-01-16T03:21:44;1.20;99.90
29729;DHT22;20055;51.498;11.960;2024-01-16T03:24:10;1.20;99.90
29729;DHT22;20055;51.498;11.960;2024-01-16T03:26:36;1.20;99.90
29729;DHT22;20055;51.498;11.960;2024-01-16T03:29:04;1.20;99.90
29729;DHT22;20055;51.498;11.960;2024-01-16T03:31:30;1.10;99.90
29729;DHT22;20055;51.498;11.960;2024-01-16T03:33:57;1.10;99.90
29729;DHT22;20055;51.498;11.960;2024-01-16T03:36:23;1.00;99.90
29729;DHT22;20055;51.498;11.960;2024-01-16T03:38:49;1.00;99.90
29729;DHT22;20055;51.498;11.960;2024-01-16T03:41:15;0.90;99.90
29729;DHT22;20055;51.498;11.960;2024-01-16T03:43:42;0.90;99.90
29729;DHT22;20055;51.498;11.960;2024-01-16T03:46:11;1.00;99.90
29729;DHT22;20055;51.498;11.960;2024-01-16T03:48:37;1.00;99.90
29729;DHT22;20055;51.498;11.960;2024-01-16T03:51:04;1.10;99.90
29729;DHT22;20055;51.498;11.960;2024-01-16T03:53:30;1.20;99.90
29729;DHT22;20055;51.498;11.960;2024-01-16T03:55:56;1.30;99.90
29729;DHT22;20055;51.498;11.960;2024-01-16T03:58:22;1.30;99.90
29729;DHT22;20055;51.498;11.960;2024-01-16T04:00:49;1.50;99.90
29729;DHT22;20055;51.498;11.960;2024-01-16T04:03:17;1.50;99.90
29729;DHT22;20055;51.498;11.960;2024-01-16T04:05:43;1.50;99.90
29729;DHT22;20055;51.498;11.960;2024-01-16T04:08:09;1.50;99.90
29729;DHT22;20055;51.498;11.960;2024-01-16T04:10:35;1.60;99.90
29729;DHT22;20055;51.498;11.960;2024-01-16T04:13:03;1.60;99.90
29729;DHT22;20055;51.498;11.960;2024-01-16T04:15:29;1.60;99.90
29729;DHT22;20055;51.498;11.960;2024-01-16T04:17:55;1.70;99.90
29729;DHT22;20055;51.498;11.960;2024-01-16T04:20:21;1.70;99.90
29729;DHT22;20055;51.498;11.960;2024-01-16T04:22:48;1.60;99.90
29729;DHT22;20055;51.498;11.960;2024-01-16T04:25:15;1.50;99.90
29729;DHT22;20055;51.498;11.960;2024-01-16T04:27:41;1.50;99.90
29729;DHT22;20055;51.498;11.960;2024-01-16T04:30:07;1.40;99.90
29729;DHT22;20055;51.498;11.960;2024-01-16T04:32:34;1.30;99.90
29729;DHT22;20055;51.498;11.960;2024-01-16T04:35:00;1.30;99.90
29729;DHT22;20055;51.498;11.960;2024-01-16T04:37:27;1.20;99.90
29729;DHT22;20055;51.498;11.960;2024-01-16T04:39:53;1.20;99.90
29729;DHT22;20055;51.498;11.960;2024-01-16T04:42:20;1.20;99.90
29729;DHT22;20055;51.498;11.960;2024-01-16T04:44:46;1.20;99.90
29729;DHT22;20055;51.498;11.960;2024-01-16T04:47:12;1.30;99.90
29729;DHT22;20055;51.498;11.960;2024-01-16T04:49:41;1.30;99.90
29729;DHT22;20055;51.498;11.960;2024-01-16T04:52:07;1.40;99.90
29729;DHT22;20055;51.498;11.960;2024-01-16T04:54:34;1.40;99.90
29729;DHT22;20055;51.498;11.960;2024-01-16T04:57:00;1.40;99.90
29729;DHT22;20055;51.498;11.960;2024-01-16T04:59:26;1.20;99.90
29729;DHT22;20055;51.498;11.960;2024-01-16T05:01:52;1.10;99.90
29729;DHT22;20055;51.498;11.960;2024-01-16T05:04:18;1.20;99.90
29729;DHT22;20055;51.498;11.960;2024-01-16T05:06:45;1.10;99.90
29729;DHT22;20055;51.498;11.960;2024-01-16T05:09:11;1.10;99.90
29729;DHT22;20055;51.498;11.960;2024-01-16T05:11:38;1.10;99.90
29729;DHT22;20055;51.498;11.960;2024-01-16T05:14:04;1.00;99.90
29729;DHT22;20055;51.498;11.960;2024-01-16T05:16:30;1.00;99.90
29729;DHT22;20055;51.498;11.960;2024-01-16T05:18:56;1.10;99.90
29729;DHT22;20055;51.498;11.960;2024-01-16T05:21:23;1.20;99.90
29729;DHT22;20055;51.498;11.960;2024-01-16T05:23:49;1.20;99.90
29729;DHT22;20055;51.498;11.960;2024-01-16T05:26:15;1.30;99.90
29729;DHT22;20055;51.498;11.960;2024-01-16T05:28:41;1.30;99.90
29729;DHT22;20055;51.498;11.960;2024-01-16T05:31:08;1.30;99.90
29729;DHT22;20055;51.498;11.960;2024-01-16T05:33:34;1.30;99.90
29729;DHT22;20055;51.498;11.960;2024-01-16T05:36:00;1.30;99.90
29729;DHT22;20055;51.498;11.960;2024-01-16T05:38:27;1.20;99.90
29729;DHT22;20055;51.498;11.960;2024-01-16T05:40:53;1.30;99.90
29729;DHT22;20055;51.498;11.960;2024-01-16T05:43:19;1.20;99.90
29729;DHT22;20055;51.498;11.960;2024-01-16T05:45:45;1.30;99.90
29729;DHT22;20055;51.498;11.960;2024-01-16T05:48:11;1.10;99.90
29729;DHT22;20055;51.498;11.960;2024-01-16T05:50:38;1.10;99.90
29729;DHT22;20055;51.498;11.960;2024-01-16T05:53:04;1.10;99.90
29729;DHT22;20055;51.498;11.960;2024-01-16T05:55:32;1.00;99.90
29729;DHT22;20055;51.498;11.960;2024-01-16T05:57:58;0.90;99.90
29729;DHT22;20055;51.498;11.960;2024-01-16T06:00:27;0.90;99.90
29729;DHT22;20055;51.498;11.960;2024-01-16T06:02:54;0.90;99.90
29729;DHT22;20055;51.498;11.960;2024-01-16T06:05:20;0.80;99.90
29729;DHT22;20055;51.498;11.960;2024-01-16T06:07:47;0.70;99.90
29729;DHT22;20055;51.498;11.960;2024-01-16T06:10:13;0.80;99.90
29729;DHT22;20055;51.498;11.960;2024-01-16T06:12:42;0.80;99.90
29729;DHT22;20055;51.498;11.960;2024-01-16T06:15:09;0.70;99.90
29729;DHT22;20055;51.498;11.960;2024-01-16T06:17:37;0.60;99.90
29729;DHT22;20055;51.498;11.960;2024-01-16T06:20:04;0.60;99.90
29729;DHT22;20055;51.498;11.960;2024-01-16T06:22:32;0.60;99.90
29729;DHT22;20055;51.498;11.960;2024-01-16T06:24:58;0.60;99.90
29729;DHT22;20055;51.498;11.960;2024-01-16T06:27:25;0.60;99.90
29729;DHT22;20055;51.498;11.960;2024-01-16T06:29:51;0.70;99.90
29729;DHT22;20055;51.498;11.960;2024-01-16T06:32:17;0.70;99.90
29729;DHT22;20055;51.498;11.960;2024-01-16T06:34:43;0.70;99.90
29729;DHT22;20055;51.498;11.960;2024-01-16T06:37:10;0.60;99.90
29729;DHT22;20055;51.498;11.960;2024-01-16T06:39:36;0.60;99.90
29729;DHT22;20055;51.498;11.960;2024-01-16T06:42:04;0.60;99.90
29729;DHT22;20055;51.498;11.960;2024-01-16T06:44:30;2.20;99.90
29729;DHT22;20055;51.498;11.960;2024-01-16T06:46:57;2.80;99.90
29729;DHT22;20055;51.498;11.960;2024-01-16T06:49:23;3.70;99.90
29729;DHT22;20055;51.498;11.960;2024-01-16T06:51:49;2.70;99.90
29729;DHT22;20055;51.498;11.960;2024-01-16T06:54:15;1.90;99.90
29729;DHT22;20055;51.498;11.960;2024-01-16T06:56:41;1.50;99.90
29729;DHT22;20055;51.498;11.960;2024-01-16T06:59:08;1.20;99.90
29729;DHT22;20055;51.498;11.960;2024-01-16T07:01:34;1.00;99.90
29729;DHT22;20055;51.498;11.960;2024-01-16T07:04:00;1.00;99.90
29729;DHT22;20055;51.498;11.960;2024-01-16T07:06:27;0.90;99.90
29729;DHT22;20055;51.498;11.960;2024-01-16T07:08:53;0.80;99.90
29729;DHT22;20055;51.498;11.960;2024-01-16T07:11:19;0.70;99.90
29729;DHT22;20055;51.498;11.960;2024-01-16T07:13:47;0.70;99.90
29729;DHT22;20055;51.498;11.960;2024-01-16T07:16:13;0.70;99.90
29729;DHT22;20055;51.498;11.960;2024-01-16T07:18:40;0.70;99.90
29729;DHT22;20055;51.498;11.960;2024-01-16T07:21:19;0.70;99.90
29729;DHT22;20055;51.498;11.960;2024-01-16T07:23:47;0.70;99.90
29729;DHT22;20055;51.498;11.960;2024-01-16T07:26:13;0.60;99.90
29729;DHT22;20055;51.498;11.960;2024-01-16T07:28:40;0.70;99.90
29729;DHT22;20055;51.498;11.960;2024-01-16T07:31:06;0.70;99.90
29729;DHT22;20055;51.498;11.960;2024-01-16T07:33:32;0.70;99.90
29729;DHT22;20055;51.498;11.960;2024-01-16T07:35:58;0.70;99.90
29729;DHT22;20055;51.498;11.960;2024-01-16T07:38:25;0.60;99.90
29729;DHT22;20055;51.498;11.960;2024-01-16T07:40:51;0.60;99.90
29729;DHT22;20055;51.498;11.960;2024-01-16T07:43:17;0.70;99.90
29729;DHT22;20055;51.498;11.960;2024-01-16T07:45:44;0.70;99.90
29729;DHT22;20055;51.498;11.960;2024-01-16T07:48:10;0.70;99.90
29729;DHT22;20055;51.498;11.960;2024-01-16T07:50:36;0.70;99.90
29729;DHT22;20055;51.498;11.960;2024-01-16T07:53:03;0.70;99.90
29729;DHT22;20055;51.498;11.960;2024-01-16T07:55:29;0.70;99.90
29729;DHT22;20055;51.498;11.960;2024-01-16T07:57:55;0.80;99.90
29729;DHT22;20055;51.498;11.960;2024-01-16T08:00:21;0.70;99.90
29729;DHT22;20055;51.498;11.960;2024-01-16T08:02:48;0.80;99.90
29729;DHT22;20055;51.498;11.960;2024-01-16T08:05:15;0.80;99.90
29729;DHT22;20055;51.498;11.960;2024-01-16T08:07:44;0.90;99.90
29729;DHT22;20055;51.498;11.960;2024-01-16T08:10:11;0.90;99.90
29729;DHT22;20055;51.498;11.960;2024-01-16T08:12:37;0.90;99.90
29729;DHT22;20055;51.498;11.960;2024-01-16T08:15:05;1.00;99.90
29729;DHT22;20055;51.498;11.960;2024-01-16T08:17:34;1.10;99.90
29729;DHT22;20055;51.498;11.960;2024-01-16T08:20:00;1.00;99.90
29729;DHT22;20055;51.498;11.960;2024-01-16T08:22:26;1.10;99.90
29729;DHT22;20055;51.498;11.960;2024-01-16T08:24:52;1.20;99.90
29729;DHT22;20055;51.498;11.960;2024-01-16T08:27:19;1.20;99.90
29729;DHT22;20055;51.498;11.960;2024-01-16T08:29:45;1.20;99.90
29729;DHT22;20055;51.498;11.960;2024-01-16T08:32:13;1.20;99.90
29729;DHT22;20055;51.498;11.960;2024-01-16T08:34:39;1.20;99.90
29729;DHT22;20055;51.498;11.960;2024-01-16T08:37:05;1.30;99.90
29729;DHT22;20055;51.498;11.960;2024-01-16T08:39:32;1.30;99.90
29729;DHT22;20055;51.498;11.960;2024-01-16T08:42:00;1.30;99.90
29729;DHT22;20055;51.498;11.960;2024-01-16T08:44:28;1.40;99.90
29729;DHT22;20055;51.498;11.960;2024-01-16T08:46:55;1.50;99.90
29729;DHT22;20055;51.498;11.960;2024-01-16T08:49:21;1.60;99.90
29729;DHT22;20055;51.498;11.960;2024-01-16T08:51:47;1.70;99.90
29729;DHT22;20055;51.498;11.960;2024-01-16T08:54:13;1.80;99.90
29729;DHT22;20055;51.498;11.960;2024-01-16T08:56:40;1.80;99.90
29729;DHT22;20055;51.498;11.960;2024-01-16T08:59:06;2.00;99.90
29729;DHT22;20055;51.498;11.960;2024-01-16T09:01:32;1.90;99.90
29729;DHT22;20055;51.498;11.960;2024-01-16T09:03:58;2.00;99.90
29729;DHT22;20055;51.498;11.960;2024-01-16T09:06:25;2.10;99.90
29729;DHT22;20055;51.498;11.960;2024-01-16T09:08:51;2.10;99.90
29729;DHT22;20055;51.498;11.960;2024-01-16T09:11:17;2.20;99.90
29729;DHT22;20055;51.498;11.960;2024-01-16T09:13:44;2.20;99.90
29729;DHT22;20055;51.498;11.960;2024-01-16T09:16:10;2.30;99.90
29729;DHT22;20055;51.498;11.960;2024-01-16T09:18:36;2.40;99.90
29729;DHT22;20055;51.498;11.960;2024-01-16T09:21:03;2.50;99.90
29729;DHT22;20055;51.498;11.960;2024-01-16T09:23:29;2.50;99.90
29729;DHT22;20055;51.498;11.960;2024-01-16T09:25:56;2.40;99.90
29729;DHT22;20055;51.498;11.960;2024-01-16T09:28:22;2.40;99.90
29729;DHT22;20055;51.498;11.960;2024-01-16T09:30:48;2.40;99.90
29729;DHT22;20055;51.498;11.960;2024-01-16T09:33:15;2.30;99.90
29729;DHT22;20055;51.498;11.960;2024-01-16T09:35:42;2.30;99.90
29729;DHT22;20055;51.498;11.960;2024-01-16T09:38:08;2.40;99.90
29729;DHT22;20055;51.498;11.960;2024-01-16T09:40:35;2.50;99.90
29729;DHT22;20055;51.498;11.960;2024-01-16T09:43:04;2.50;99.90
29729;DHT22;20055;51.498;11.960;2024-01-16T09:45:30;2.60;99.90
29729;DHT22;20055;51.498;11.960;2024-01-16T09:47:58;2.70;99.90
29729;DHT22;20055;51.498;11.960;2024-01-16T09:50:25;2.70;99.90
29729;DHT22;20055;51.498;11.960;2024-01-16T09:52:51;2.60;99.90
29729;DHT22;20055;51.498;11.960;2024-01-16T09:55:18;2.70;99.90
29729;DHT22;20055;51.498;11.960;2024-01-16T09:57:45;2.60;99.90
29729;DHT22;20055;51.498;11.960;2024-01-16T10:00:12;2.60;99.90
29729;DHT22;20055;51.498;11.960;2024-01-16T10:02:42;2.70;99.90
29729;DHT22;20055;51.498;11.960;2024-01-16T10:05:10;2.80;99.90
29729;DHT22;20055;51.498;11.960;2024-01-16T10:07:38;2.80;99.90
29729;DHT22;20055;51.498;11.960;2024-01-16T10:10:05;3.00;99.90
29729;DHT22;20055;51.498;11.960;2024-01-16T10:12:33;2.90;99.90
29729;DHT22;20055;51.498;11.960;2024-01-16T10:15:00;2.80;99.90
29729;DHT22;20055;51.498;11.960;2024-01-16T10:17:39;3.00;99.90
29729;DHT22;20055;51.498;11.960;2024-01-16T10:20:07;3.10;99.90
29729;DHT22;20055;51.498;11.960;2024-01-16T10:22:34;3.20;99.90
29729;DHT22;20055;51.498;11.960;2024-01-16T10:27:29;3.00;99.90
29729;DHT22;20055;51.498;11.960;2024-01-16T10:29:57;3.10;99.90
29729;DHT22;20055;51.498;11.960;2024-01-16T10:32:29;3.10;99.90
29729;DHT22;20055;51.498;11.960;2024-01-16T10:35:09;3.00;99.90
29729;DHT22;20055;51.498;11.960;2024-01-16T10:37:46;3.00;99.90
29729;DHT22;20055;51.498;11.960;2024-01-16T10:40:17;3.10;99.90
29729;DHT22;20055;51.498;11.960;2024-01-16T10:42:45;3.20;99.90
29729;DHT22;20055;51.498;11.960;2024-01-16T10:45:18;3.20;99.90
29729;DHT22;20055;51.498;11.960;2024-01-16T10:48:00;3.20;99.90
29729;DHT22;20055;51.498;11.960;2024-01-16T10:50:26;3.20;99.90
29729;DHT22;20055;51.498;11.960;2024-01-16T10:52:54;3.30;99.90
29729;DHT22;20055;51.498;11.960;2024-01-16T10:55:24;3.30;99.90
29729;DHT22;20055;51.498;11.960;2024-01-16T10:57:51;3.30;99.90
29729;DHT22;20055;51.498;11.960;2024-01-16T11:00:21;3.30;99.90
29729;DHT22;20055;51.498;11.960;2024-01-16T11:03:07;3.20;99.90
29729;DHT22;20055;51.498;11.960;2024-01-16T11:05:36;3.00;99.90
29729;DHT22;20055;51.498;11.960;2024-01-16T11:08:04;2.70;99.90
29729;DHT22;20055;51.498;11.960;2024-01-16T11:10:32;2.70;99.90
29729;DHT22;20055;51.498;11.960;2024-01-16T11:13:02;2.80;99.90
29729;DHT22;20055;51.498;11.960;2024-01-16T11:15:31;2.90;99.90
29729;DHT22;20055;51.498;11.960;2024-01-16T11:17:59;2.90;99.90
29729;DHT22;20055;51.498;11.960;2024-01-16T11:20:26;2.80;99.90
29729;DHT22;20055;51.498;11.960;2024-01-16T11:22:53;2.90;99.90
29729;DHT22;20055;51.498;11.960;2024-01-16T11:25:32;2.80;99.90
29729;DHT22;20055;51.498;11.960;2024-01-16T11:28:09;2.90;99.90
29729;DHT22;20055;51.498;11.960;2024-01-16T11:30:36;2.90;99.90
29729;DHT22;20055;51.498;11.960;2024-01-16T11:33:03;3.00;99.90
29729;DHT22;20055;51.498;11.960;2024-01-16T11:35:37;3.10;99.90
29729;DHT22;20055;51.498;11.960;2024-01-16T11:38:11;3.10;99.90
29729;DHT22;20055;51.498;11.960;2024-01-16T11:40:40;3.10;99.90
29729;DHT22;20055;51.498;11.960;2024-01-16T11:43:35;3.10;99.90
29729;DHT22;20055;51.498;11.960;2024-01-16T11:46:03;3.00;99.90
29729;DHT22;20055;51.498;11.960;2024-01-16T11:48:30;3.00;99.90
29729;DHT22;20055;51.498;11.960;2024-01-16T11:50:56;3.00;99.90
29729;DHT22;20055;51.498;11.960;2024-01-16T12:01:51;3.60;99.90
29729;DHT22;20055;51.498;11.960;2024-01-16T12:04:18;3.50;99.90
29729;DHT22;20055;51.498;11.960;2024-01-16T12:06:57;3.50;99.90
29729;DHT22;20055;51.498;11.960;2024-01-16T12:09:28;3.70;99.90
29729;DHT22;20055;51.498;11.960;2024-01-16T12:11:59;3.50;99.90
29729;DHT22;20055;51.498;11.960;2024-01-16T12:14:28;3.60;99.90
29729;DHT22;20055;51.498;11.960;2024-01-16T12:17:11;3.70;99.90
29729;DHT22;20055;51.498;11.960;2024-01-16T12:19:38;3.70;99.90
29729;DHT22;20055;51.498;11.960;2024-01-16T12:22:09;3.60;99.90
29729;DHT22;20055;51.498;11.960;2024-01-16T12:24:37;3.60;99.90
29729;DHT22;20055;51.498;11.960;2024-01-16T12:27:04;3.80;99.90
29729;DHT22;20055;51.498;11.960;2024-01-16T12:29:32;3.80;99.90
29729;DHT22;20055;51.498;11.960;2024-01-16T12:32:06;3.80;99.90
29729;DHT22;20055;51.498;11.960;2024-01-16T12:34:34;3.70;99.90
29729;DHT22;20055;51.498;11.960;2024-01-16T12:37:05;3.70;99.90
29729;DHT22;20055;51.498;11.960;2024-01-16T12:39:34;3.90;99.90
29729;DHT22;20055;51.498;11.960;2024-01-16T12:42:01;3.90;99.90
29729;DHT22;20055;51.498;11.960;2024-01-16T12:44:29;4.10;99.90
29729;DHT22;20055;51.498;11.960;2024-01-16T12:46:56;3.90;99.90
29729;DHT22;20055;51.498;11.960;2024-01-16T12:49:25;3.90;99.90
29729;DHT22;20055;51.498;11.960;2024-01-16T12:51:51;3.80;99.90
29729;DHT22;20055;51.498;11.960;2024-01-16T12:54:18;3.70;99.90
29729;DHT22;20055;51.498;11.960;2024-01-16T12:56:48;3.90;99.90
29729;DHT22;20055;51.498;11.960;2024-01-16T12:59:14;3.90;99.90
29729;DHT22;20055;51.498;11.960;2024-01-16T13:01:44;3.80;99.90
29729;DHT22;20055;51.498;11.960;2024-01-16T13:04:12;3.90;99.90
29729;DHT22;20055;51.498;11.960;2024-01-16T13:06:42;3.80;99.90
29729;DHT22;20055;51.498;11.960;2024-01-16T13:09:10;3.80;99.90
29729;DHT22;20055;51.498;11.960;2024-01-16T13:11:54;3.70;99.90
29729;DHT22;20055;51.498;11.960;2024-01-16T13:14:22;3.60;99.90
29729;DHT22;20055;51.498;11.960;2024-01-16T13:16:49;3.60;99.90
29729;DHT22;20055;51.498;11.960;2024-01-16T13:19:19;3.50;99.90
29729;DHT22;20055;51.498;11.960;2024-01-16T13:21:46;3.60;99.90
29729;DHT22;20055;51.498;11.960;2024-01-16T13:24:12;3.70;99.90
29729;DHT22;20055;51.498;11.960;2024-01-16T13:26:39;3.60;99.90
29729;DHT22;20055;51.498;11.960;2024-01-16T13:29:06;3.60;99.90
29729;DHT22;20055;51.498;11.960;2024-01-16T13:31:32;3.60;99.90
29729;DHT22;20055;51.498;11.960;2024-01-16T13:33:58;3.60;99.90
29729;DHT22;20055;51.498;11.960;2024-01-16T13:36:24;3.40;99.90
29729;DHT22;20055;51.498;11.960;2024-01-16T13:38:52;3.60;99.90
29729;DHT22;20055;51.498;11.960;2024-01-16T13:41:19;3.70;99.90
29729;DHT22;20055;51.498;11.960;2024-01-16T13:43:45;3.70;99.90
29729;DHT22;20055;51.498;11.960;2024-01-16T13:46:12;3.70;99.90
29729;DHT22;20055;51.498;11.960;2024-01-16T13:48:39;3.70;99.90
29729;DHT22;20055;51.498;11.960;2024-01-16T13:51:07;3.60;99.90
29729;DHT22;20055;51.498;11.960;2024-01-16T13:53:33;3.70;99.90
29729;DHT22;20055;51.498;11.960;2024-01-16T13:56:00;3.70;99.90
29729;DHT22;20055;51.498;11.960;2024-01-16T13:58:27;3.60;99.90
29729;DHT22;20055;51.498;11.960;2024-01-16T14:00:53;3.60;99.90
29729;DHT22;20055;51.498;11.960;2024-01-16T14:03:19;3.70;99.90
29729;DHT22;20055;51.498;11.960;2024-01-16T14:05:46;3.70;99.90
29729;DHT22;20055;51.498;11.960;2024-01-16T14:08:12;3.70;99.90
29729;DHT22;20055;51.498;11.960;2024-01-16T14:10:39;3.70;99.90
29729;DHT22;20055;51.498;11.960;2024-01-16T14:13:05;3.70;99.90
29729;DHT22;20055;51.498;11.960;2024-01-16T14:15:32;3.60;99.90
29729;DHT22;20055;51.498;11.960;2024-01-16T14:17:58;3.60;99.90
29729;DHT22;20055;51.498;11.960;2024-01-16T14:20:25;3.60;99.90
29729;DHT22;20055;51.498;11.960;2024-01-16T14:22:53;3.70;99.90
29729;DHT22;20055;51.498;11.960;2024-01-16T14:25:19;3.60;99.90
29729;DHT22;20055;51.498;11.960;2024-01-16T14:27:55;3.60;99.90
29729;DHT22;20055;51.498;11.960;2024-01-16T14:30:21;3.70;99.90
29729;DHT22;20055;51.498;11.960;2024-01-16T14:32:47;3.80;99.90
29729;DHT22;20055;51.498;11.960;2024-01-16T14:35:14;3.70;99.90
29729;DHT22;20055;51.498;11.960;2024-01-16T14:37:43;3.80;99.90
29729;DHT22;20055;51.498;11.960;2024-01-16T14:40:11;3.70;99.90
29729;DHT22;20055;51.498;11.960;2024-01-16T14:42:55;3.70;99.90
29729;DHT22;20055;51.498;11.960;2024-01-16T14:45:23;3.60;99.90
29729;DHT22;20055;51.498;11.960;2024-01-16T14:47:51;3.40;99.90
29729;DHT22;20055;51.498;11.960;2024-01-16T14:50:19;3.50;99.90
29729;DHT22;20055;51.498;11.960;2024-01-16T14:52:51;3.60;99.90
29729;DHT22;20055;51.498;11.960;2024-01-16T14:55:18;3.70;99.90
29729;DHT22;20055;51.498;11.960;2024-01-16T14:57:46;3.60;99.90
29729;DHT22;20055;51.498;11.960;2024-01-16T15:00:18;3.60;99.90
29729;DHT22;20055;51.498;11.960;2024-01-16T15:02:50;3.60;99.90
29729;DHT22;20055;51.498;11.960;2024-01-16T15:05:18;3.70;99.90
29729;DHT22;20055;51.498;11.960;2024-01-16T15:07:46;3.60;99.90
29729;DHT22;20055;51.498;11.960;2024-01-16T15:10:12;3.50;99.90
29729;DHT22;20055;51.498;11.960;2024-01-16T15:12:39;3.60;99.90
29729;DHT22;20055;51.498;11.960;2024-01-16T15:15:10;3.60;99.90
29729;DHT22;20055;51.498;11.960;2024-01-16T15:17:38;3.50;99.90
29729;DHT22;20055;51.498;11.960;2024-01-16T15:20:04;3.40;99.90
29729;DHT22;20055;51.498;11.960;2024-01-16T15:22:41;3.20;99.90
29729;DHT22;20055;51.498;11.960;2024-01-16T15:25:09;3.30;99.90
29729;DHT22;20055;51.498;11.960;2024-01-16T15:27:35;3.20;99.90
29729;DHT22;20055;51.498;11.960;2024-01-16T15:30:03;3.20;99.90
29729;DHT22;20055;51.498;11.960;2024-01-16T15:32:30;3.30;99.90
29729;DHT22;20055;51.498;11.960;2024-01-16T15:34:57;3.20;99.90
29729;DHT22;20055;51.498;11.960;2024-01-16T15:37:24;3.20;99.90
29729;DHT22;20055;51.498;11.960;2024-01-16T15:39:50;3.20;99.90
29729;DHT22;20055;51.498;11.960;2024-01-16T15:42:16;3.20;99.90
29729;DHT22;20055;51.498;11.960;2024-01-16T15:44:43;3.10;99.90